sensor_id;sensor_type;location;lat;lon;timestamp;P1;durP1;ratioP1;P2;durP2;ratioP2
19358;SDS011;9815;52.334;20.890;2023-11-21T00:00:50;47.47;;;18.63;;
19358;SDS011;9815;52.334;20.890;2023-11-21T00:03:19;41.37;;;17.87;;
19358;SDS011;9815;52.334;20.890;2023-11-21T00:05:50;45.83;;;18.67;;
19358;SDS011;9815;52.334;20.890;2023-11-21T00:08:18;40.10;;;17.77;;
19358;SDS011;9815;52.334;20.890;2023-11-21T00:10:49;41.30;;;18.57;;
19358;SDS011;9815;52.334;20.890;2023-11-21T00:13:18;40.13;;;17.00;;
19358;SDS011;9815;52.334;20.890;2023-11-21T00:15:49;46.60;;;18.93;;
19358;SDS011;9815;52.334;20.890;2023-11-21T00:18:18;46.10;;;19.90;;
19358;SDS011;9815;52.334;20.890;2023-11-21T00:20:46;46.50;;;18.47;;
19358;SDS011;9815;52.334;20.890;2023-11-21T00:23:14;45.87;;;19.47;;
19358;SDS011;9815;52.334;20.890;2023-11-21T00:25:43;46.97;;;18.77;;
19358;SDS011;9815;52.334;20.890;2023-11-21T00:28:13;40.13;;;18.40;;
19358;SDS011;9815;52.334;20.890;2023-11-21T00:30:41;43.90;;;18.87;;
19358;SDS011;9815;52.334;20.890;2023-11-21T00:33:10;51.43;;;19.47;;
19358;SDS011;9815;52.334;20.890;2023-11-21T00:35:38;45.43;;;19.07;;
19358;SDS011;9815;52.334;20.890;2023-11-21T00:38:06;43.10;;;19.37;;
19358;SDS011;9815;52.334;20.890;2023-11-21T00:40:36;46.30;;;20.13;;
19358;SDS011;9815;52.334;20.890;2023-11-21T00:43:04;41.90;;;18.67;;
19358;SDS011;9815;52.334;20.890;2023-11-21T00:45:34;46.33;;;18.83;;
19358;SDS011;9815;52.334;20.890;2023-11-21T00:48:03;46.17;;;18.97;;
19358;SDS011;9815;52.334;20.890;2023-11-21T00:50:32;45.33;;;19.47;;
19358;SDS011;9815;52.334;20.890;2023-11-21T00:53:00;41.47;;;19.67;;
19358;SDS011;9815;52.334;20.890;2023-11-21T00:55:29;42.43;;;19.03;;
19358;SDS011;9815;52.334;20.890;2023-11-21T00:57:58;49.47;;;19.93;;
19358;SDS011;9815;52.334;20.890;2023-11-21T01:00:26;48.00;;;19.33;;
19358;SDS011;9815;52.334;20.890;2023-11-21T01:02:56;49.40;;;19.43;;
19358;SDS011;9815;52.334;20.890;2023-11-21T01:05:24;48.87;;;20.70;;
19358;SDS011;9815;52.334;20.890;2023-11-21T01:07:53;45.13;;;18.70;;
19358;SDS011;9815;52.334;20.890;2023-11-21T01:10:21;44.67;;;19.50;;
19358;SDS011;9815;52.334;20.890;2023-11-21T01:12:50;45.87;;;19.30;;
19358;SDS011;9815;52.334;20.890;2023-11-21T01:15:18;45.07;;;19.80;;
19358;SDS011;9815;52.334;20.890;2023-11-21T01:17:47;41.97;;;18.63;;
19358;SDS011;9815;52.334;20.890;2023-11-21T01:20:17;40.90;;;19.53;;
19358;SDS011;9815;52.334;20.890;2023-11-21T01:22:46;43.60;;;18.37;;
19358;SDS011;9815;52.334;20.890;2023-11-21T01:25:15;44.97;;;19.73;;
19358;SDS011;9815;52.334;20.890;2023-11-21T01:27:44;46.20;;;20.63;;
19358;SDS011;9815;52.334;20.890;2023-11-21T01:30:12;43.23;;;17.60;;
19358;SDS011;9815;52.334;20.890;2023-11-21T01:32:41;43.27;;;19.70;;
19358;SDS011;9815;52.334;20.890;2023-11-21T01:35:10;45.07;;;19.70;;
19358;SDS011;9815;52.334;20.890;2023-11-21T01:37:41;42.40;;;17.40;;
19358;SDS011;9815;52.334;20.890;2023-11-21T01:40:09;40.57;;;18.47;;
19358;SDS011;9815;52.334;20.890;2023-11-21T01:42:41;45.73;;;19.23;;
19358;SDS011;9815;52.334;20.890;2023-11-21T01:45:11;45.37;;;19.30;;
19358;SDS011;9815;52.334;20.890;2023-11-21T01:47:40;49.63;;;19.07;;
19358;SDS011;9815;52.334;20.890;2023-11-21T01:50:12;45.33;;;18.70;;
19358;SDS011;9815;52.334;20.890;2023-11-21T01:52:45;43.80;;;19.17;;
19358;SDS011;9815;52.334;20.890;2023-11-21T01:55:16;43.03;;;17.67;;
19358;SDS011;9815;52.334;20.890;2023-11-21T01:57:54;39.33;;;17.53;;
19358;SDS011;9815;52.334;20.890;2023-11-21T02:00:23;35.83;;;17.10;;
19358;SDS011;9815;52.334;20.890;2023-11-21T02:02:51;45.10;;;18.53;;
19358;SDS011;9815;52.334;20.890;2023-11-21T02:05:20;39.20;;;16.73;;
19358;SDS011;9815;52.334;20.890;2023-11-21T02:07:50;34.47;;;16.30;;
19358;SDS011;9815;52.334;20.890;2023-11-21T02:10:19;38.30;;;17.87;;
19358;SDS011;9815;52.334;20.890;2023-11-21T02:12:51;39.70;;;17.33;;
19358;SDS011;9815;52.334;20.890;2023-11-21T02:15:20;33.03;;;15.10;;
19358;SDS011;9815;52.334;20.890;2023-11-21T02:17:50;34.87;;;15.57;;
19358;SDS011;9815;52.334;20.890;2023-11-21T02:20:20;35.53;;;16.07;;
19358;SDS011;9815;52.334;20.890;2023-11-21T02:22:53;36.47;;;16.37;;
19358;SDS011;9815;52.334;20.890;2023-11-21T02:25:26;35.20;;;16.13;;
19358;SDS011;9815;52.334;20.890;2023-11-21T02:27:55;41.10;;;17.43;;
19358;SDS011;9815;52.334;20.890;2023-11-21T02:30:24;37.33;;;17.13;;
19358;SDS011;9815;52.334;20.890;2023-11-21T02:32:54;36.47;;;15.43;;
19358;SDS011;9815;52.334;20.890;2023-11-21T02:35:24;35.23;;;17.20;;
19358;SDS011;9815;52.334;20.890;2023-11-21T02:37:54;35.90;;;15.37;;
19358;SDS011;9815;52.334;20.890;2023-11-21T02:40:24;39.33;;;17.37;;
19358;SDS011;9815;52.334;20.890;2023-11-21T02:42:53;34.50;;;15.10;;
19358;SDS011;9815;52.334;20.890;2023-11-21T02:45:25;30.83;;;14.77;;
19358;SDS011;9815;52.334;20.890;2023-11-21T02:47:54;33.40;;;15.33;;
19358;SDS011;9815;52.334;20.890;2023-11-21T02:50:25;36.90;;;16.17;;
19358;SDS011;9815;52.334;20.890;2023-11-21T02:52:55;36.93;;;15.90;;
19358;SDS011;9815;52.334;20.890;2023-11-21T02:55:27;33.63;;;16.63;;
19358;SDS011;9815;52.334;20.890;2023-11-21T02:57:55;33.53;;;15.60;;
19358;SDS011;9815;52.334;20.890;2023-11-21T03:00:24;43.30;;;15.87;;
19358;SDS011;9815;52.334;20.890;2023-11-21T03:02:54;32.80;;;15.87;;
19358;SDS011;9815;52.334;20.890;2023-11-21T03:05:25;43.70;;;17.43;;
19358;SDS011;9815;52.334;20.890;2023-11-21T03:07:54;38.90;;;17.37;;
19358;SDS011;9815;52.334;20.890;2023-11-21T03:10:25;48.60;;;16.10;;
19358;SDS011;9815;52.334;20.890;2023-11-21T03:12:54;35.87;;;15.93;;
19358;SDS011;9815;52.334;20.890;2023-11-21T03:15:24;37.17;;;15.90;;
19358;SDS011;9815;52.334;20.890;2023-11-21T03:17:52;38.00;;;16.30;;
19358;SDS011;9815;52.334;20.890;2023-11-21T03:20:21;35.90;;;16.93;;
19358;SDS011;9815;52.334;20.890;2023-11-21T03:22:49;39.37;;;16.17;;
19358;SDS011;9815;52.334;20.890;2023-11-21T03:25:19;38.17;;;16.97;;
19358;SDS011;9815;52.334;20.890;2023-11-21T03:27:50;37.70;;;16.57;;
19358;SDS011;9815;52.334;20.890;2023-11-21T03:30:19;40.60;;;17.60;;
19358;SDS011;9815;52.334;20.890;2023-11-21T03:32:48;40.97;;;17.63;;
19358;SDS011;9815;52.334;20.890;2023-11-21T03:35:16;39.53;;;17.13;;
19358;SDS011;9815;52.334;20.890;2023-11-21T03:37:47;41.57;;;18.10;;
19358;SDS011;9815;52.334;20.890;2023-11-21T03:40:15;40.20;;;17.27;;
19358;SDS011;9815;52.334;20.890;2023-11-21T03:42:45;42.60;;;16.50;;
19358;SDS011;9815;52.334;20.890;2023-11-21T03:45:14;30.27;;;14.70;;
19358;SDS011;9815;52.334;20.890;2023-11-21T03:47:42;34.07;;;16.40;;
19358;SDS011;9815;52.334;20.890;2023-11-21T03:50:10;33.47;;;16.73;;
19358;SDS011;9815;52.334;20.890;2023-11-21T03:52:39;33.17;;;15.40;;
19358;SDS011;9815;52.334;20.890;2023-11-21T03:55:07;36.20;;;14.33;;
19358;SDS011;9815;52.334;20.890;2023-11-21T03:57:41;30.73;;;14.47;;
19358;SDS011;9815;52.334;20.890;2023-11-21T04:00:12;38.33;;;15.53;;
19358;SDS011;9815;52.334;20.890;2023-11-21T04:02:41;32.37;;;14.03;;
19358;SDS011;9815;52.334;20.890;2023-11-21T04:05:09;36.00;;;14.97;;
19358;SDS011;9815;52.334;20.890;2023-11-21T04:07:38;34.57;;;14.83;;
19358;SDS011;9815;52.334;20.890;2023-11-21T04:10:07;31.13;;;15.40;;
19358;SDS011;9815;52.334;20.890;2023-11-21T04:12:38;32.97;;;14.57;;
19358;SDS011;9815;52.334;20.890;2023-11-21T04:15:07;29.43;;;13.13;;
19358;SDS011;9815;52.334;20.890;2023-11-21T04:17:38;29.43;;;14.20;;
19358;SDS011;9815;52.334;20.890;2023-11-21T04:20:07;32.43;;;13.27;;
19358;SDS011;9815;52.334;20.890;2023-11-21T04:22:37;29.70;;;13.37;;
19358;SDS011;9815;52.334;20.890;2023-11-21T04:25:11;28.80;;;13.40;;
19358;SDS011;9815;52.334;20.890;2023-11-21T04:27:40;30.10;;;14.13;;
19358;SDS011;9815;52.334;20.890;2023-11-21T04:30:10;31.50;;;13.97;;
19358;SDS011;9815;52.334;20.890;2023-11-21T04:32:41;32.60;;;13.17;;
19358;SDS011;9815;52.334;20.890;2023-11-21T04:35:10;25.70;;;13.13;;
19358;SDS011;9815;52.334;20.890;2023-11-21T04:37:38;30.33;;;12.97;;
19358;SDS011;9815;52.334;20.890;2023-11-21T04:40:07;27.37;;;11.37;;
19358;SDS011;9815;52.334;20.890;2023-11-21T04:42:36;23.37;;;11.67;;
19358;SDS011;9815;52.334;20.890;2023-11-21T04:45:05;27.67;;;11.77;;
19358;SDS011;9815;52.334;20.890;2023-11-21T04:47:36;28.83;;;11.90;;
19358;SDS011;9815;52.334;20.890;2023-11-21T04:50:06;20.80;;;10.50;;
19358;SDS011;9815;52.334;20.890;2023-11-21T04:52:35;18.43;;;9.73;;
19358;SDS011;9815;52.334;20.890;2023-11-21T04:55:04;23.83;;;10.57;;
19358;SDS011;9815;52.334;20.890;2023-11-21T04:57:33;18.63;;;9.40;;
19358;SDS011;9815;52.334;20.890;2023-11-21T05:00:01;21.30;;;10.27;;
19358;SDS011;9815;52.334;20.890;2023-11-21T05:02:32;19.33;;;10.27;;
19358;SDS011;9815;52.334;20.890;2023-11-21T05:05:02;21.00;;;10.10;;
19358;SDS011;9815;52.334;20.890;2023-11-21T05:07:34;25.83;;;10.97;;
19358;SDS011;9815;52.334;20.890;2023-11-21T05:10:03;20.97;;;11.03;;
19358;SDS011;9815;52.334;20.890;2023-11-21T05:12:35;23.13;;;11.00;;
19358;SDS011;9815;52.334;20.890;2023-11-21T05:15:04;25.63;;;12.50;;
19358;SDS011;9815;52.334;20.890;2023-11-21T05:17:36;21.03;;;10.03;;
19358;SDS011;9815;52.334;20.890;2023-11-21T05:20:06;25.50;;;10.27;;
19358;SDS011;9815;52.334;20.890;2023-11-21T05:22:37;22.93;;;10.27;;
19358;SDS011;9815;52.334;20.890;2023-11-21T05:25:06;23.47;;;11.33;;
19358;SDS011;9815;52.334;20.890;2023-11-21T05:27:35;22.33;;;11.10;;
19358;SDS011;9815;52.334;20.890;2023-11-21T05:30:04;22.93;;;9.93;;
19358;SDS011;9815;52.334;20.890;2023-11-21T05:32:36;23.73;;;11.67;;
19358;SDS011;9815;52.334;20.890;2023-11-21T05:35:04;20.70;;;10.83;;
19358;SDS011;9815;52.334;20.890;2023-11-21T05:37:37;21.73;;;10.23;;
19358;SDS011;9815;52.334;20.890;2023-11-21T05:40:06;19.63;;;10.30;;
19358;SDS011;9815;52.334;20.890;2023-11-21T05:42:36;24.53;;;10.70;;
19358;SDS011;9815;52.334;20.890;2023-11-21T05:45:05;21.80;;;10.03;;
19358;SDS011;9815;52.334;20.890;2023-11-21T05:47:37;28.87;;;11.17;;
19358;SDS011;9815;52.334;20.890;2023-11-21T05:50:07;25.00;;;11.37;;
19358;SDS011;9815;52.334;20.890;2023-11-21T05:52:43;30.80;;;12.73;;
19358;SDS011;9815;52.334;20.890;2023-11-21T05:55:12;26.10;;;12.93;;
19358;SDS011;9815;52.334;20.890;2023-11-21T05:57:42;27.93;;;12.17;;
19358;SDS011;9815;52.334;20.890;2023-11-21T06:00:12;32.53;;;12.43;;
19358;SDS011;9815;52.334;20.890;2023-11-21T06:02:47;21.50;;;10.77;;
19358;SDS011;9815;52.334;20.890;2023-11-21T06:05:17;23.47;;;11.23;;
19358;SDS011;9815;52.334;20.890;2023-11-21T06:07:47;21.30;;;10.50;;
19358;SDS011;9815;52.334;20.890;2023-11-21T06:10:21;23.17;;;11.40;;
19358;SDS011;9815;52.334;20.890;2023-11-21T06:12:52;21.60;;;11.10;;
19358;SDS011;9815;52.334;20.890;2023-11-21T06:15:22;26.60;;;12.43;;
19358;SDS011;9815;52.334;20.890;2023-11-21T06:17:50;29.23;;;11.70;;
19358;SDS011;9815;52.334;20.890;2023-11-21T06:20:20;26.73;;;11.40;;
19358;SDS011;9815;52.334;20.890;2023-11-21T06:22:51;27.27;;;11.27;;
19358;SDS011;9815;52.334;20.890;2023-11-21T06:25:20;21.93;;;10.87;;
19358;SDS011;9815;52.334;20.890;2023-11-21T06:27:49;21.33;;;10.63;;
19358;SDS011;9815;52.334;20.890;2023-11-21T06:30:20;25.80;;;10.87;;
19358;SDS011;9815;52.334;20.890;2023-11-21T06:32:50;38.70;;;12.80;;
19358;SDS011;9815;52.334;20.890;2023-11-21T06:35:19;25.97;;;12.17;;
19358;SDS011;9815;52.334;20.890;2023-11-21T06:37:48;32.07;;;12.33;;
19358;SDS011;9815;52.334;20.890;2023-11-21T06:40:19;25.83;;;12.10;;
19358;SDS011;9815;52.334;20.890;2023-11-21T06:42:48;28.83;;;11.57;;
19358;SDS011;9815;52.334;20.890;2023-11-21T06:45:17;26.40;;;12.80;;
19358;SDS011;9815;52.334;20.890;2023-11-21T06:47:46;67.57;;;18.37;;
19358;SDS011;9815;52.334;20.890;2023-11-21T06:50:16;26.60;;;12.60;;
19358;SDS011;9815;52.334;20.890;2023-11-21T06:52:44;29.90;;;13.20;;
19358;SDS011;9815;52.334;20.890;2023-11-21T06:55:13;30.27;;;11.87;;
19358;SDS011;9815;52.334;20.890;2023-11-21T06:57:44;25.13;;;11.13;;
19358;SDS011;9815;52.334;20.890;2023-11-21T07:00:14;36.57;;;13.47;;
19358;SDS011;9815;52.334;20.890;2023-11-21T07:02:45;25.63;;;12.37;;
19358;SDS011;9815;52.334;20.890;2023-11-21T07:05:13;29.40;;;12.93;;
19358;SDS011;9815;52.334;20.890;2023-11-21T07:07:47;27.70;;;11.67;;
19358;SDS011;9815;52.334;20.890;2023-11-21T07:10:16;25.83;;;12.00;;
19358;SDS011;9815;52.334;20.890;2023-11-21T07:12:46;29.50;;;12.43;;
19358;SDS011;9815;52.334;20.890;2023-11-21T07:15:14;30.27;;;11.80;;
19358;SDS011;9815;52.334;20.890;2023-11-21T07:17:43;25.30;;;11.73;;
19358;SDS011;9815;52.334;20.890;2023-11-21T07:20:11;26.03;;;11.87;;
19358;SDS011;9815;52.334;20.890;2023-11-21T07:22:40;28.63;;;12.97;;
19358;SDS011;9815;52.334;20.890;2023-11-21T07:25:08;23.80;;;11.73;;
19358;SDS011;9815;52.334;20.890;2023-11-21T07:27:37;31.60;;;12.50;;
19358;SDS011;9815;52.334;20.890;2023-11-21T07:30:08;28.43;;;12.43;;
19358;SDS011;9815;52.334;20.890;2023-11-21T07:32:37;26.93;;;12.90;;
19358;SDS011;9815;52.334;20.890;2023-11-21T07:35:07;29.60;;;12.33;;
19358;SDS011;9815;52.334;20.890;2023-11-21T07:37:36;27.70;;;11.43;;
19358;SDS011;9815;52.334;20.890;2023-11-21T07:40:05;26.97;;;11.00;;
19358;SDS011;9815;52.334;20.890;2023-11-21T07:42:36;24.60;;;12.20;;
19358;SDS011;9815;52.334;20.890;2023-11-21T07:45:05;25.03;;;12.77;;
19358;SDS011;9815;52.334;20.890;2023-11-21T07:47:36;25.73;;;11.67;;
19358;SDS011;9815;52.334;20.890;2023-11-21T07:50:09;28.70;;;11.53;;
19358;SDS011;9815;52.334;20.890;2023-11-21T07:52:38;27.80;;;12.27;;
19358;SDS011;9815;52.334;20.890;2023-11-21T07:55:06;29.07;;;12.90;;
19358;SDS011;9815;52.334;20.890;2023-11-21T07:57:35;31.47;;;13.13;;
19358;SDS011;9815;52.334;20.890;2023-11-21T08:00:04;26.00;;;12.63;;
19358;SDS011;9815;52.334;20.890;2023-11-21T08:02:40;28.47;;;12.57;;
19358;SDS011;9815;52.334;20.890;2023-11-21T08:05:12;28.67;;;11.40;;
19358;SDS011;9815;52.334;20.890;2023-11-21T08:07:53;31.53;;;13.80;;
19358;SDS011;9815;52.334;20.890;2023-11-21T08:10:22;31.63;;;14.20;;
19358;SDS011;9815;52.334;20.890;2023-11-21T08:12:51;27.77;;;11.97;;
19358;SDS011;9815;52.334;20.890;2023-11-21T08:15:20;27.13;;;11.37;;
19358;SDS011;9815;52.334;20.890;2023-11-21T08:17:49;23.93;;;10.73;;
19358;SDS011;9815;52.334;20.890;2023-11-21T08:20:18;26.90;;;10.43;;
19358;SDS011;9815;52.334;20.890;2023-11-21T08:22:49;23.27;;;11.53;;
19358;SDS011;9815;52.334;20.890;2023-11-21T08:25:18;34.53;;;13.67;;
19358;SDS011;9815;52.334;20.890;2023-11-21T08:27:47;25.23;;;12.30;;
19358;SDS011;9815;52.334;20.890;2023-11-21T08:30:16;26.53;;;12.33;;
19358;SDS011;9815;52.334;20.890;2023-11-21T08:32:46;24.70;;;11.73;;
19358;SDS011;9815;52.334;20.890;2023-11-21T08:35:16;22.87;;;11.00;;
19358;SDS011;9815;52.334;20.890;2023-11-21T08:37:44;26.70;;;13.47;;
19358;SDS011;9815;52.334;20.890;2023-11-21T08:40:13;29.50;;;14.67;;
19358;SDS011;9815;52.334;20.890;2023-11-21T08:42:43;33.23;;;14.43;;
19358;SDS011;9815;52.334;20.890;2023-11-21T08:45:13;27.07;;;13.23;;
19358;SDS011;9815;52.334;20.890;2023-11-21T08:47:41;24.10;;;12.00;;
19358;SDS011;9815;52.334;20.890;2023-11-21T08:50:11;29.93;;;13.50;;
19358;SDS011;9815;52.334;20.890;2023-11-21T08:52:41;23.93;;;11.60;;
19358;SDS011;9815;52.334;20.890;2023-11-21T08:55:10;27.20;;;13.57;;
19358;SDS011;9815;52.334;20.890;2023-11-21T08:57:40;31.97;;;13.90;;
19358;SDS011;9815;52.334;20.890;2023-11-21T09:00:11;29.97;;;13.97;;
19358;SDS011;9815;52.334;20.890;2023-11-21T09:02:42;31.47;;;13.27;;
19358;SDS011;9815;52.334;20.890;2023-11-21T09:05:11;29.00;;;12.83;;
19358;SDS011;9815;52.334;20.890;2023-11-21T09:07:42;37.27;;;13.43;;
19358;SDS011;9815;52.334;20.890;2023-11-21T09:10:12;31.23;;;13.33;;
19358;SDS011;9815;52.334;20.890;2023-11-21T09:12:41;27.43;;;12.67;;
19358;SDS011;9815;52.334;20.890;2023-11-21T09:15:10;26.80;;;12.80;;
19358;SDS011;9815;52.334;20.890;2023-11-21T09:17:39;26.83;;;13.43;;
19358;SDS011;9815;52.334;20.890;2023-11-21T09:20:09;27.83;;;12.83;;
19358;SDS011;9815;52.334;20.890;2023-11-21T09:22:38;33.43;;;13.23;;
19358;SDS011;9815;52.334;20.890;2023-11-21T09:25:08;28.33;;;12.93;;
19358;SDS011;9815;52.334;20.890;2023-11-21T09:27:37;27.00;;;11.53;;
19358;SDS011;9815;52.334;20.890;2023-11-21T09:30:06;26.80;;;11.70;;
19358;SDS011;9815;52.334;20.890;2023-11-21T09:32:37;27.87;;;12.03;;
19358;SDS011;9815;52.334;20.890;2023-11-21T09:35:07;25.93;;;11.53;;
19358;SDS011;9815;52.334;20.890;2023-11-21T09:37:36;25.97;;;12.33;;
19358;SDS011;9815;52.334;20.890;2023-11-21T09:40:09;29.13;;;13.77;;
19358;SDS011;9815;52.334;20.890;2023-11-21T09:42:40;29.90;;;13.20;;
19358;SDS011;9815;52.334;20.890;2023-11-21T09:45:17;29.00;;;12.97;;
19358;SDS011;9815;52.334;20.890;2023-11-21T09:47:53;28.53;;;13.43;;
19358;SDS011;9815;52.334;20.890;2023-11-21T09:50:23;28.87;;;12.60;;
19358;SDS011;9815;52.334;20.890;2023-11-21T09:53:03;25.80;;;13.77;;
19358;SDS011;9815;52.334;20.890;2023-11-21T09:55:41;33.83;;;15.63;;
19358;SDS011;9815;52.334;20.890;2023-11-21T09:58:11;28.30;;;14.27;;
19358;SDS011;9815;52.334;20.890;2023-11-21T10:00:41;31.37;;;13.53;;
19358;SDS011;9815;52.334;20.890;2023-11-21T10:03:10;34.70;;;15.10;;
19358;SDS011;9815;52.334;20.890;2023-11-21T10:05:39;32.57;;;16.40;;
19358;SDS011;9815;52.334;20.890;2023-11-21T10:08:10;35.60;;;14.67;;
19358;SDS011;9815;52.334;20.890;2023-11-21T10:10:42;39.77;;;17.17;;
19358;SDS011;9815;52.334;20.890;2023-11-21T10:13:13;35.63;;;15.00;;
19358;SDS011;9815;52.334;20.890;2023-11-21T10:15:44;30.93;;;13.80;;
19358;SDS011;9815;52.334;20.890;2023-11-21T10:18:18;33.23;;;12.87;;
19358;SDS011;9815;52.334;20.890;2023-11-21T10:20:49;30.93;;;13.87;;
19358;SDS011;9815;52.334;20.890;2023-11-21T10:23:20;27.00;;;13.23;;
19358;SDS011;9815;52.334;20.890;2023-11-21T10:25:51;27.43;;;12.73;;
19358;SDS011;9815;52.334;20.890;2023-11-21T10:28:23;27.63;;;13.50;;
19358;SDS011;9815;52.334;20.890;2023-11-21T10:30:52;32.30;;;13.33;;
19358;SDS011;9815;52.334;20.890;2023-11-21T10:33:26;27.47;;;13.53;;
19358;SDS011;9815;52.334;20.890;2023-11-21T10:35:56;30.60;;;13.40;;
19358;SDS011;9815;52.334;20.890;2023-11-21T10:38:26;24.93;;;12.80;;
19358;SDS011;9815;52.334;20.890;2023-11-21T10:40:58;26.90;;;12.60;;
19358;SDS011;9815;52.334;20.890;2023-11-21T10:43:31;32.73;;;14.87;;
19358;SDS011;9815;52.334;20.890;2023-11-21T10:46:01;27.87;;;12.63;;
19358;SDS011;9815;52.334;20.890;2023-11-21T10:48:30;29.43;;;12.53;;
19358;SDS011;9815;52.334;20.890;2023-11-21T10:51:05;34.77;;;15.50;;
19358;SDS011;9815;52.334;20.890;2023-11-21T10:53:38;31.53;;;13.87;;
19358;SDS011;9815;52.334;20.890;2023-11-21T10:56:12;32.40;;;14.50;;
19358;SDS011;9815;52.334;20.890;2023-11-21T10:58:47;29.50;;;12.70;;
19358;SDS011;9815;52.334;20.890;2023-11-21T11:01:21;30.50;;;14.47;;
19358;SDS011;9815;52.334;20.890;2023-11-21T11:03:56;25.30;;;11.57;;
19358;SDS011;9815;52.334;20.890;2023-11-21T11:06:25;27.80;;;11.97;;
19358;SDS011;9815;52.334;20.890;2023-11-21T11:08:59;24.77;;;12.37;;
19358;SDS011;9815;52.334;20.890;2023-11-21T11:11:36;30.27;;;13.33;;
19358;SDS011;9815;52.334;20.890;2023-11-21T11:14:08;28.47;;;13.00;;
19358;SDS011;9815;52.334;20.890;2023-11-21T11:16:38;26.07;;;12.90;;
19358;SDS011;9815;52.334;20.890;2023-11-21T11:19:09;32.83;;;14.10;;
19358;SDS011;9815;52.334;20.890;2023-11-21T11:21:43;34.00;;;13.80;;
19358;SDS011;9815;52.334;20.890;2023-11-21T11:24:33;51.53;;;19.97;;
19358;SDS011;9815;52.334;20.890;2023-11-21T11:27:21;29.63;;;14.00;;
19358;SDS011;9815;52.334;20.890;2023-11-21T11:30:00;35.13;;;14.50;;
19358;SDS011;9815;52.334;20.890;2023-11-21T11:32:43;25.27;;;12.03;;
19358;SDS011;9815;52.334;20.890;2023-11-21T11:35:24;27.20;;;13.37;;
19358;SDS011;9815;52.334;20.890;2023-11-21T11:38:01;33.17;;;15.17;;
19358;SDS011;9815;52.334;20.890;2023-11-21T11:40:38;29.43;;;13.50;;
19358;SDS011;9815;52.334;20.890;2023-11-21T11:43:10;28.13;;;12.77;;
19358;SDS011;9815;52.334;20.890;2023-11-21T11:45:38;28.93;;;13.77;;
19358;SDS011;9815;52.334;20.890;2023-11-21T11:48:10;30.97;;;13.60;;
19358;SDS011;9815;52.334;20.890;2023-11-21T11:50:42;35.63;;;14.83;;
19358;SDS011;9815;52.334;20.890;2023-11-21T11:53:25;27.93;;;12.87;;
19358;SDS011;9815;52.334;20.890;2023-11-21T11:55:57;32.90;;;13.37;;
19358;SDS011;9815;52.334;20.890;2023-11-21T11:58:48;27.03;;;13.27;;
19358;SDS011;9815;52.334;20.890;2023-11-21T12:01:18;28.13;;;14.13;;
19358;SDS011;9815;52.334;20.890;2023-11-21T12:07:04;29.33;;;13.87;;
19358;SDS011;9815;52.334;20.890;2023-11-21T12:09:33;29.70;;;14.00;;
19358;SDS011;9815;52.334;20.890;2023-11-21T12:12:04;31.80;;;13.23;;
19358;SDS011;9815;52.334;20.890;2023-11-21T12:14:35;27.47;;;13.37;;
19358;SDS011;9815;52.334;20.890;2023-11-21T12:17:04;24.93;;;11.93;;
19358;SDS011;9815;52.334;20.890;2023-11-21T12:19:33;27.43;;;14.03;;
19358;SDS011;9815;52.334;20.890;2023-11-21T12:22:06;28.43;;;13.47;;
19358;SDS011;9815;52.334;20.890;2023-11-21T12:24:35;27.40;;;13.07;;
19358;SDS011;9815;52.334;20.890;2023-11-21T12:27:04;33.90;;;12.47;;
19358;SDS011;9815;52.334;20.890;2023-11-21T12:29:32;75.37;;;25.37;;
19358;SDS011;9815;52.334;20.890;2023-11-21T12:32:04;36.50;;;15.03;;
19358;SDS011;9815;52.334;20.890;2023-11-21T12:34:33;25.70;;;12.77;;
19358;SDS011;9815;52.334;20.890;2023-11-21T12:37:02;31.27;;;14.17;;
19358;SDS011;9815;52.334;20.890;2023-11-21T12:39:30;28.03;;;14.33;;
19358;SDS011;9815;52.334;20.890;2023-11-21T12:41:59;32.13;;;15.17;;
19358;SDS011;9815;52.334;20.890;2023-11-21T12:44:30;27.57;;;13.70;;
19358;SDS011;9815;52.334;20.890;2023-11-21T12:47:29;23.27;;;11.63;;
19358;SDS011;9815;52.334;20.890;2023-11-21T12:49:58;24.87;;;12.07;;
19358;SDS011;9815;52.334;20.890;2023-11-21T12:52:28;26.97;;;12.70;;
19358;SDS011;9815;52.334;20.890;2023-11-21T12:54:56;28.57;;;13.60;;
19358;SDS011;9815;52.334;20.890;2023-11-21T12:57:25;24.83;;;12.13;;
19358;SDS011;9815;52.334;20.890;2023-11-21T12:59:56;24.63;;;12.13;;
19358;SDS011;9815;52.334;20.890;2023-11-21T13:02:26;27.40;;;13.37;;
19358;SDS011;9815;52.334;20.890;2023-11-21T13:04:56;29.80;;;13.90;;
19358;SDS011;9815;52.334;20.890;2023-11-21T13:07:25;24.00;;;13.23;;
19358;SDS011;9815;52.334;20.890;2023-11-21T13:09:54;28.70;;;13.70;;
19358;SDS011;9815;52.334;20.890;2023-11-21T13:12:23;32.47;;;14.07;;
19358;SDS011;9815;52.334;20.890;2023-11-21T13:14:52;28.17;;;14.57;;
19358;SDS011;9815;52.334;20.890;2023-11-21T13:17:21;28.97;;;13.20;;
19358;SDS011;9815;52.334;20.890;2023-11-21T13:19:51;29.73;;;14.23;;
19358;SDS011;9815;52.334;20.890;2023-11-21T13:22:22;29.07;;;13.03;;
19358;SDS011;9815;52.334;20.890;2023-11-21T13:24:51;25.93;;;12.70;;
19358;SDS011;9815;52.334;20.890;2023-11-21T13:27:19;27.37;;;12.13;;
19358;SDS011;9815;52.334;20.890;2023-11-21T13:29:48;30.93;;;13.93;;
19358;SDS011;9815;52.334;20.890;2023-11-21T13:32:16;30.77;;;14.13;;
19358;SDS011;9815;52.334;20.890;2023-11-21T13:34:47;25.87;;;12.60;;
19358;SDS011;9815;52.334;20.890;2023-11-21T13:37:19;30.80;;;13.20;;
19358;SDS011;9815;52.334;20.890;2023-11-21T13:39:51;29.97;;;14.70;;
19358;SDS011;9815;52.334;20.890;2023-11-21T13:42:20;30.00;;;12.90;;
19358;SDS011;9815;52.334;20.890;2023-11-21T13:44:56;31.20;;;14.20;;
19358;SDS011;9815;52.334;20.890;2023-11-21T13:47:24;29.50;;;13.97;;
19358;SDS011;9815;52.334;20.890;2023-11-21T13:49:56;28.00;;;13.67;;
19358;SDS011;9815;52.334;20.890;2023-11-21T13:52:26;29.90;;;13.90;;
19358;SDS011;9815;52.334;20.890;2023-11-21T13:54:57;25.80;;;13.63;;
19358;SDS011;9815;52.334;20.890;2023-11-21T13:57:28;29.03;;;15.03;;
19358;SDS011;9815;52.334;20.890;2023-11-21T13:59:57;35.07;;;15.83;;
19358;SDS011;9815;52.334;20.890;2023-11-21T14:02:29;39.90;;;17.13;;
19358;SDS011;9815;52.334;20.890;2023-11-21T14:05:05;38.80;;;16.57;;
19358;SDS011;9815;52.334;20.890;2023-11-21T14:07:37;34.60;;;15.80;;
19358;SDS011;9815;52.334;20.890;2023-11-21T14:10:06;33.30;;;16.23;;
19358;SDS011;9815;52.334;20.890;2023-11-21T14:12:39;36.63;;;15.03;;
19358;SDS011;9815;52.334;20.890;2023-11-21T14:15:09;34.67;;;14.83;;
19358;SDS011;9815;52.334;20.890;2023-11-21T14:17:43;32.63;;;14.27;;
19358;SDS011;9815;52.334;20.890;2023-11-21T14:20:12;30.97;;;14.40;;
19358;SDS011;9815;52.334;20.890;2023-11-21T14:22:45;31.50;;;15.20;;
19358;SDS011;9815;52.334;20.890;2023-11-21T14:25:13;38.47;;;16.37;;
19358;SDS011;9815;52.334;20.890;2023-11-21T14:27:44;32.70;;;14.60;;
19358;SDS011;9815;52.334;20.890;2023-11-21T14:30:13;33.17;;;13.53;;
19358;SDS011;9815;52.334;20.890;2023-11-21T14:32:41;27.97;;;13.37;;
19358;SDS011;9815;52.334;20.890;2023-11-21T14:35:10;31.30;;;14.07;;
19358;SDS011;9815;52.334;20.890;2023-11-21T14:37:38;28.70;;;14.00;;
19358;SDS011;9815;52.334;20.890;2023-11-21T14:40:09;27.67;;;13.63;;
19358;SDS011;9815;52.334;20.890;2023-11-21T14:42:39;35.23;;;14.30;;